sensor_id;sensor_type;location;lat;lon;timestamp;pressure;altitude;pressure_sealevel;temperature;humidity
4085;BME280;2057;50.858;6.572;2022-08-21T00:00:17;100503.75;;;17.49;88.21
4085;BME280;2057;50.858;6.572;2022-08-21T00:02:50;100492.72;;;17.12;89.45
4085;BME280;2057;50.858;6.572;2022-08-21T00:05:17;100490.81;;;17.05;91.02
4085;BME280;2057;50.858;6.572;2022-08-21T00:07:42;100493.16;;;16.94;91.33
4085;BME280;2057;50.858;6.572;2022-08-21T00:10:09;100493.34;;;16.67;93.00
4085;BME280;2057;50.858;6.572;2022-08-21T00:12:35;100488.69;;;16.87;91.75
4085;BME280;2057;50.858;6.572;2022-08-21T00:15:00;100486.28;;;16.93;91.14
4085;BME280;2057;50.858;6.572;2022-08-21T00:17:26;100486.38;;;16.96;90.81
4085;BME280;2057;50.858;6.572;2022-08-21T00:19:51;100487.06;;;16.90;91.40
4085;BME280;2057;50.858;6.572;2022-08-21T00:22:17;100491.53;;;16.98;91.07
4085;BME280;2057;50.858;6.572;2022-08-21T00:24:42;100487.22;;;16.97;90.14
4085;BME280;2057;50.858;6.572;2022-08-21T00:27:08;100487.72;;;16.82;91.78
4085;BME280;2057;50.858;6.572;2022-08-21T00:29:33;100488.59;;;16.84;91.82
4085;BME280;2057;50.858;6.572;2022-08-21T00:31:59;100480.06;;;16.83;91.07
4085;BME280;2057;50.858;6.572;2022-08-21T00:34:25;100478.94;;;16.72;92.07
4085;BME280;2057;50.858;6.572;2022-08-21T00:36:50;100479.84;;;16.74;91.60
4085;BME280;2057;50.858;6.572;2022-08-21T00:39:16;100486.03;;;16.47;91.83
4085;BME280;2057;50.858;6.572;2022-08-21T00:41:43;100479.72;;;16.33;92.58
4085;BME280;2057;50.858;6.572;2022-08-21T00:44:11;100481.81;;;16.15;94.21
4085;BME280;2057;50.858;6.572;2022-08-21T00:46:37;100477.09;;;16.31;94.10
4085;BME280;2057;50.858;6.572;2022-08-21T00:49:04;100473.34;;;16.18;94.81
4085;BME280;2057;50.858;6.572;2022-08-21T00:51:52;100473.81;;;16.37;93.42
4085;BME280;2057;50.858;6.572;2022-08-21T00:54:21;100474.41;;;16.26;93.53
4085;BME280;2057;50.858;6.572;2022-08-21T00:56:50;100471.69;;;16.20;93.27
4085;BME280;2057;50.858;6.572;2022-08-21T00:59:18;100475.16;;;15.89;95.94
4085;BME280;2057;50.858;6.572;2022-08-21T01:01:45;100466.09;;;16.02;95.79
4085;BME280;2057;50.858;6.572;2022-08-21T01:04:11;100470.72;;;16.15;94.54
4085;BME280;2057;50.858;6.572;2022-08-21T01:06:37;100468.75;;;16.05;94.33
4085;BME280;2057;50.858;6.572;2022-08-21T01:09:02;100478.47;;;16.18;95.15
4085;BME280;2057;50.858;6.572;2022-08-21T01:11:28;100476.56;;;16.09;94.55
4085;BME280;2057;50.858;6.572;2022-08-21T01:13:53;100468.34;;;15.89;94.27
4085;BME280;2057;50.858;6.572;2022-08-21T01:16:21;100467.88;;;16.04;95.48
4085;BME280;2057;50.858;6.572;2022-08-21T01:18:47;100468.06;;;16.12;93.12
4085;BME280;2057;50.858;6.572;2022-08-21T01:21:22;100470.00;;;15.87;95.05
4085;BME280;2057;50.858;6.572;2022-08-21T01:23:51;100464.19;;;15.94;94.46
4085;BME280;2057;50.858;6.572;2022-08-21T01:26:22;100474.09;;;15.82;95.12
4085;BME280;2057;50.858;6.572;2022-08-21T01:28:54;100470.53;;;15.77;95.40
4085;BME280;2057;50.858;6.572;2022-08-21T01:31:25;100470.94;;;15.60;95.72
4085;BME280;2057;50.858;6.572;2022-08-21T01:33:50;100471.31;;;15.44;97.60
4085;BME280;2057;50.858;6.572;2022-08-21T01:36:16;100471.84;;;15.62;95.88
4085;BME280;2057;50.858;6.572;2022-08-21T01:38:42;100467.84;;;15.42;95.44
4085;BME280;2057;50.858;6.572;2022-08-21T01:41:07;100469.81;;;15.21;98.10
4085;BME280;2057;50.858;6.572;2022-08-21T01:43:32;100473.78;;;15.41;97.68
4085;BME280;2057;50.858;6.572;2022-08-21T01:45:58;100471.69;;;15.56;97.03
4085;BME280;2057;50.858;6.572;2022-08-21T01:48:23;100465.91;;;15.63;95.66
4085;BME280;2057;50.858;6.572;2022-08-21T01:50:48;100467.72;;;15.67;95.76
4085;BME280;2057;50.858;6.572;2022-08-21T01:53:14;100461.50;;;15.59;95.85
4085;BME280;2057;50.858;6.572;2022-08-21T01:55:41;100461.38;;;15.55;95.40
4085;BME280;2057;50.858;6.572;2022-08-21T01:58:07;100461.50;;;15.59;96.00
4085;BME280;2057;50.858;6.572;2022-08-21T02:00:33;100463.25;;;15.60;95.21
4085;BME280;2057;50.858;6.572;2022-08-21T02:02:58;100461.47;;;15.58;94.94
4085;BME280;2057;50.858;6.572;2022-08-21T02:05:24;100463.09;;;15.54;95.65
4085;BME280;2057;50.858;6.572;2022-08-21T02:07:52;100460.22;;;15.43;96.03
4085;BME280;2057;50.858;6.572;2022-08-21T02:10:24;100464.88;;;15.58;96.44
4085;BME280;2057;50.858;6.572;2022-08-21T02:12:51;100455.34;;;15.52;96.05
4085;BME280;2057;50.858;6.572;2022-08-21T02:15:16;100456.34;;;15.58;95.89
4085;BME280;2057;50.858;6.572;2022-08-21T02:17:52;100459.13;;;15.65;95.49
4085;BME280;2057;50.858;6.572;2022-08-21T02:20:35;100458.03;;;15.57;95.37
4085;BME280;2057;50.858;6.572;2022-08-21T02:23:00;100463.59;;;15.42;96.19
4085;BME280;2057;50.858;6.572;2022-08-21T02:25:27;100463.34;;;15.33;95.71
4085;BME280;2057;50.858;6.572;2022-08-21T02:27:53;100451.81;;;15.47;96.72
4085;BME280;2057;50.858;6.572;2022-08-21T02:30:23;100455.31;;;15.51;95.88
4085;BME280;2057;50.858;6.572;2022-08-21T02:32:49;100453.25;;;15.37;96.38
4085;BME280;2057;50.858;6.572;2022-08-21T02:35:14;100445.59;;;15.39;97.27
4085;BME280;2057;50.858;6.572;2022-08-21T02:37:45;100455.88;;;15.41;95.57
4085;BME280;2057;50.858;6.572;2022-08-21T02:40:12;100451.19;;;15.26;96.42
4085;BME280;2057;50.858;6.572;2022-08-21T02:42:38;100455.31;;;15.22;97.18
4085;BME280;2057;50.858;6.572;2022-08-21T02:45:05;100457.28;;;15.29;97.40
4085;BME280;2057;50.858;6.572;2022-08-21T02:47:31;100451.50;;;15.36;96.81
4085;BME280;2057;50.858;6.572;2022-08-21T02:49:57;100455.81;;;15.37;96.51
4085;BME280;2057;50.858;6.572;2022-08-21T02:52:22;100455.47;;;15.27;95.92
4085;BME280;2057;50.858;6.572;2022-08-21T02:54:49;100454.41;;;14.91;96.33
4085;BME280;2057;50.858;6.572;2022-08-21T02:57:14;100452.47;;;14.82;97.05
4085;BME280;2057;50.858;6.572;2022-08-21T02:59:39;100450.31;;;14.96;98.01
4085;BME280;2057;50.858;6.572;2022-08-21T03:02:05;100452.78;;;14.93;97.30
4085;BME280;2057;50.858;6.572;2022-08-21T03:04:31;100448.63;;;14.97;97.42
4085;BME280;2057;50.858;6.572;2022-08-21T03:06:57;100445.41;;;14.75;98.61
4085;BME280;2057;50.858;6.572;2022-08-21T03:09:22;100447.38;;;14.84;99.38
4085;BME280;2057;50.858;6.572;2022-08-21T03:11:47;100438.97;;;14.88;98.59
4085;BME280;2057;50.858;6.572;2022-08-21T03:14:13;100440.66;;;14.86;98.55
4085;BME280;2057;50.858;6.572;2022-08-21T03:16:38;100438.50;;;14.72;100.00
4085;BME280;2057;50.858;6.572;2022-08-21T03:19:03;100435.81;;;14.68;100.00
4085;BME280;2057;50.858;6.572;2022-08-21T03:21:29;100427.44;;;14.72;100.00
4085;BME280;2057;50.858;6.572;2022-08-21T03:23:55;100437.34;;;14.90;100.00
4085;BME280;2057;50.858;6.572;2022-08-21T03:26:20;100437.59;;;14.98;98.59
4085;BME280;2057;50.858;6.572;2022-08-21T03:28:46;100430.88;;;15.01;99.62
4085;BME280;2057;50.858;6.572;2022-08-21T03:31:11;100434.22;;;14.99;99.32
4085;BME280;2057;50.858;6.572;2022-08-21T03:33:37;100425.75;;;15.01;98.87
4085;BME280;2057;50.858;6.572;2022-08-21T03:36:05;100432.47;;;14.98;99.40
4085;BME280;2057;50.858;6.572;2022-08-21T03:38:32;100433.81;;;14.86;99.55
4085;BME280;2057;50.858;6.572;2022-08-21T03:40:59;100449.28;;;14.64;99.86
4085;BME280;2057;50.858;6.572;2022-08-21T03:43:25;100440.06;;;14.67;100.00
4085;BME280;2057;50.858;6.572;2022-08-21T03:45:51;100453.34;;;14.57;100.00
4085;BME280;2057;50.858;6.572;2022-08-21T03:48:17;100452.56;;;14.59;100.00
4085;BME280;2057;50.858;6.572;2022-08-21T03:50:43;100450.66;;;14.80;99.99
4085;BME280;2057;50.858;6.572;2022-08-21T03:53:13;100448.03;;;15.05;99.03
4085;BME280;2057;50.858;6.572;2022-08-21T03:55:39;100446.09;;;15.26;97.38
4085;BME280;2057;50.858;6.572;2022-08-21T03:58:04;100448.84;;;15.33;96.57
4085;BME280;2057;50.858;6.572;2022-08-21T04:00:30;100458.41;;;15.39;96.22
4085;BME280;2057;50.858;6.572;2022-08-21T04:02:56;100459.19;;;15.36;96.21
4085;BME280;2057;50.858;6.572;2022-08-21T04:05:23;100461.75;;;15.36;97.03
4085;BME280;2057;50.858;6.572;2022-08-21T04:07:59;100469.69;;;15.46;96.91
4085;BME280;2057;50.858;6.572;2022-08-21T04:10:26;100461.81;;;15.40;96.70
4085;BME280;2057;50.858;6.572;2022-08-21T04:12:52;100466.78;;;15.35;96.13
4085;BME280;2057;50.858;6.572;2022-08-21T04:15:19;100464.59;;;15.18;97.24
4085;BME280;2057;50.858;6.572;2022-08-21T04:17:45;100460.94;;;15.10;99.25
4085;BME280;2057;50.858;6.572;2022-08-21T04:20:10;100467.97;;;15.17;99.94
4085;BME280;2057;50.858;6.572;2022-08-21T04:22:36;100472.25;;;15.17;98.67
4085;BME280;2057;50.858;6.572;2022-08-21T04:25:01;100469.41;;;15.08;100.00
4085;BME280;2057;50.858;6.572;2022-08-21T04:27:26;100471.31;;;15.15;99.27
4085;BME280;2057;50.858;6.572;2022-08-21T04:29:52;100474.81;;;15.17;98.10
4085;BME280;2057;50.858;6.572;2022-08-21T04:32:24;100480.91;;;15.22;98.17
4085;BME280;2057;50.858;6.572;2022-08-21T04:34:49;100479.38;;;15.27;98.59
4085;BME280;2057;50.858;6.572;2022-08-21T04:37:15;100477.53;;;15.23;97.98
4085;BME280;2057;50.858;6.572;2022-08-21T04:39:41;100476.84;;;15.29;97.21
4085;BME280;2057;50.858;6.572;2022-08-21T04:42:07;100472.22;;;15.15;97.08
4085;BME280;2057;50.858;6.572;2022-08-21T04:44:34;100468.03;;;14.90;98.11
4085;BME280;2057;50.858;6.572;2022-08-21T04:46:59;100473.25;;;14.93;99.28
4085;BME280;2057;50.858;6.572;2022-08-21T04:49:24;100476.28;;;15.10;99.05
4085;BME280;2057;50.858;6.572;2022-08-21T04:51:50;100482.66;;;15.23;97.33
4085;BME280;2057;50.858;6.572;2022-08-21T04:54:20;100486.91;;;15.23;97.51
4085;BME280;2057;50.858;6.572;2022-08-21T04:56:56;100481.28;;;15.34;97.33
4085;BME280;2057;50.858;6.572;2022-08-21T04:59:31;100483.81;;;15.33;97.14
4085;BME280;2057;50.858;6.572;2022-08-21T05:01:59;100483.31;;;15.46;96.26
4085;BME280;2057;50.858;6.572;2022-08-21T05:04:29;100478.84;;;15.39;95.46
4085;BME280;2057;50.858;6.572;2022-08-21T05:06:57;100480.56;;;15.39;95.86
4085;BME280;2057;50.858;6.572;2022-08-21T05:09:25;100476.84;;;15.29;96.10
4085;BME280;2057;50.858;6.572;2022-08-21T05:11:52;100483.75;;;15.31;96.29
4085;BME280;2057;50.858;6.572;2022-08-21T05:14:18;100474.53;;;15.36;96.68
4085;BME280;2057;50.858;6.572;2022-08-21T05:16:45;100481.00;;;15.25;96.60
4085;BME280;2057;50.858;6.572;2022-08-21T05:19:10;100475.63;;;15.16;96.89
4085;BME280;2057;50.858;6.572;2022-08-21T05:21:39;100480.97;;;15.24;97.36
4085;BME280;2057;50.858;6.572;2022-08-21T05:24:04;100482.28;;;15.11;96.80
4085;BME280;2057;50.858;6.572;2022-08-21T05:26:30;100480.91;;;15.22;96.25
4085;BME280;2057;50.858;6.572;2022-08-21T05:28:56;100482.28;;;15.40;95.07
4085;BME280;2057;50.858;6.572;2022-08-21T05:31:22;100481.75;;;15.21;94.88
4085;BME280;2057;50.858;6.572;2022-08-21T05:33:47;100481.97;;;15.29;95.66
4085;BME280;2057;50.858;6.572;2022-08-21T05:36:13;100488.91;;;15.33;95.43
4085;BME280;2057;50.858;6.572;2022-08-21T05:38:38;100489.59;;;15.27;95.98
4085;BME280;2057;50.858;6.572;2022-08-21T05:41:04;100488.69;;;15.25;96.51
4085;BME280;2057;50.858;6.572;2022-08-21T05:43:29;100493.25;;;15.35;96.45
4085;BME280;2057;50.858;6.572;2022-08-21T05:45:55;100496.16;;;15.48;96.17
4085;BME280;2057;50.858;6.572;2022-08-21T05:48:22;100490.09;;;15.44;96.13
4085;BME280;2057;50.858;6.572;2022-08-21T05:50:49;100491.13;;;15.51;96.62
4085;BME280;2057;50.858;6.572;2022-08-21T05:53:16;100494.78;;;15.59;95.86
4085;BME280;2057;50.858;6.572;2022-08-21T05:55:43;100496.75;;;15.68;95.75
4085;BME280;2057;50.858;6.572;2022-08-21T05:58:08;100498.16;;;15.58;95.74
4085;BME280;2057;50.858;6.572;2022-08-21T06:00:34;100500.97;;;15.67;97.20
4085;BME280;2057;50.858;6.572;2022-08-21T06:03:00;100498.56;;;16.03;95.50
4085;BME280;2057;50.858;6.572;2022-08-21T06:05:25;100492.38;;;15.94;95.75
4085;BME280;2057;50.858;6.572;2022-08-21T06:07:51;100490.91;;;15.74;98.60
4085;BME280;2057;50.858;6.572;2022-08-21T06:10:17;100486.44;;;15.95;97.64
4085;BME280;2057;50.858;6.572;2022-08-21T06:12:42;100480.59;;;16.01;97.12
4085;BME280;2057;50.858;6.572;2022-08-21T06:15:08;100486.22;;;16.20;95.96
4085;BME280;2057;50.858;6.572;2022-08-21T06:17:33;100480.66;;;16.36;94.86
4085;BME280;2057;50.858;6.572;2022-08-21T06:19:59;100483.28;;;16.39;93.52
4085;BME280;2057;50.858;6.572;2022-08-21T06:22:24;100486.13;;;16.50;92.94
4085;BME280;2057;50.858;6.572;2022-08-21T06:24:49;100488.91;;;16.59;92.58
4085;BME280;2057;50.858;6.572;2022-08-21T06:27:15;100481.25;;;16.61;93.08
4085;BME280;2057;50.858;6.572;2022-08-21T06:29:43;100481.50;;;16.72;92.85
4085;BME280;2057;50.858;6.572;2022-08-21T06:32:11;100490.56;;;16.57;92.73
4085;BME280;2057;50.858;6.572;2022-08-21T06:34:38;100489.66;;;16.55;92.58
4085;BME280;2057;50.858;6.572;2022-08-21T06:37:04;100497.16;;;16.47;93.09
4085;BME280;2057;50.858;6.572;2022-08-21T06:39:31;100488.72;;;16.52;92.40
4085;BME280;2057;50.858;6.572;2022-08-21T06:41:56;100491.69;;;16.69;92.40
4085;BME280;2057;50.858;6.572;2022-08-21T06:44:22;100496.59;;;16.59;92.58
4085;BME280;2057;50.858;6.572;2022-08-21T06:46:47;100486.28;;;16.58;93.22
4085;BME280;2057;50.858;6.572;2022-08-21T06:49:13;100489.75;;;16.58;92.71
4085;BME280;2057;50.858;6.572;2022-08-21T06:51:40;100479.19;;;16.83;92.03
4085;BME280;2057;50.858;6.572;2022-08-21T06:54:05;100483.66;;;16.91;91.79
4085;BME280;2057;50.858;6.572;2022-08-21T06:56:31;100481.59;;;17.12;90.95
4085;BME280;2057;50.858;6.572;2022-08-21T06:58:58;100486.59;;;17.07;91.29
4085;BME280;2057;50.858;6.572;2022-08-21T07:01:26;100491.31;;;17.27;89.97
4085;BME280;2057;50.858;6.572;2022-08-21T07:03:51;100486.31;;;17.33;90.68
4085;BME280;2057;50.858;6.572;2022-08-21T07:06:17;100477.66;;;17.28;91.01
4085;BME280;2057;50.858;6.572;2022-08-21T07:08:43;100491.44;;;17.33;91.59
4085;BME280;2057;50.858;6.572;2022-08-21T07:11:19;100491.56;;;17.39;91.13
4085;BME280;2057;50.858;6.572;2022-08-21T07:13:45;100491.09;;;17.57;89.81
4085;BME280;2057;50.858;6.572;2022-08-21T07:16:11;100496.22;;;17.57;89.71
4085;BME280;2057;50.858;6.572;2022-08-21T07:18:37;100492.22;;;17.70;89.08
4085;BME280;2057;50.858;6.572;2022-08-21T07:21:04;100488.25;;;17.87;89.05
4085;BME280;2057;50.858;6.572;2022-08-21T07:23:34;100488.50;;;17.98;85.66
4085;BME280;2057;50.858;6.572;2022-08-21T07:26:00;100486.84;;;18.03;84.31
4085;BME280;2057;50.858;6.572;2022-08-21T07:28:27;100491.31;;;18.12;82.79
4085;BME280;2057;50.858;6.572;2022-08-21T07:30:54;100488.25;;;18.32;82.45
4085;BME280;2057;50.858;6.572;2022-08-21T07:33:20;100490.25;;;18.52;82.12
4085;BME280;2057;50.858;6.572;2022-08-21T07:35:46;100493.81;;;18.58;82.14
4085;BME280;2057;50.858;6.572;2022-08-21T07:38:11;100494.78;;;18.65;81.43
4085;BME280;2057;50.858;6.572;2022-08-21T07:40:37;100496.50;;;18.66;80.35
4085;BME280;2057;50.858;6.572;2022-08-21T07:43:02;100497.81;;;18.93;79.62
4085;BME280;2057;50.858;6.572;2022-08-21T07:45:28;100496.03;;;18.92;80.32
4085;BME280;2057;50.858;6.572;2022-08-21T07:47:53;100494.63;;;19.09;78.15
4085;BME280;2057;50.858;6.572;2022-08-21T07:50:19;100497.28;;;19.17;77.23
4085;BME280;2057;50.858;6.572;2022-08-21T07:52:45;100493.91;;;19.21;76.52
4085;BME280;2057;50.858;6.572;2022-08-21T07:55:13;100486.97;;;19.17;76.49
4085;BME280;2057;50.858;6.572;2022-08-21T07:57:39;100490.63;;;19.32;77.60
4085;BME280;2057;50.858;6.572;2022-08-21T08:00:07;100486.31;;;19.29;75.02
4085;BME280;2057;50.858;6.572;2022-08-21T08:02:33;100482.13;;;19.39;75.06
4085;BME280;2057;50.858;6.572;2022-08-21T08:05:00;100480.72;;;19.66;72.90
4085;BME280;2057;50.858;6.572;2022-08-21T08:07:26;100478.13;;;19.64;73.22
4085;BME280;2057;50.858;6.572;2022-08-21T08:09:51;100482.38;;;19.59;72.58
4085;BME280;2057;50.858;6.572;2022-08-21T08:12:17;100480.81;;;19.73;73.55
4085;BME280;2057;50.858;6.572;2022-08-21T08:14:43;100480.03;;;19.81;72.90
4085;BME280;2057;50.858;6.572;2022-08-21T08:17:09;100476.53;;;19.72;70.49
4085;BME280;2057;50.858;6.572;2022-08-21T08:19:34;100476.69;;;19.86;71.94
4085;BME280;2057;50.858;6.572;2022-08-21T08:22:00;100466.41;;;19.89;70.46
4085;BME280;2057;50.858;6.572;2022-08-21T08:24:25;100469.97;;;20.02;71.87
4085;BME280;2057;50.858;6.572;2022-08-21T08:26:51;100460.59;;;20.11;70.99
4085;BME280;2057;50.858;6.572;2022-08-21T08:29:16;100465.03;;;20.27;69.15
4085;BME280;2057;50.858;6.572;2022-08-21T08:31:41;100462.41;;;20.21;68.98
4085;BME280;2057;50.858;6.572;2022-08-21T08:34:07;100466.66;;;20.16;68.50
4085;BME280;2057;50.858;6.572;2022-08-21T08:36:35;100467.56;;;20.19;69.37
4085;BME280;2057;50.858;6.572;2022-08-21T08:39:03;100471.88;;;20.22;68.48
4085;BME280;2057;50.858;6.572;2022-08-21T08:41:29;100468.50;;;20.31;69.08
4085;BME280;2057;50.858;6.572;2022-08-21T08:44:00;100471.97;;;20.31;68.84
4085;BME280;2057;50.858;6.572;2022-08-21T08:46:35;100460.84;;;20.40;68.21
4085;BME280;2057;50.858;6.572;2022-08-21T08:51:53;100460.03;;;20.46;67.92
4085;BME280;2057;50.858;6.572;2022-08-21T08:54:37;100459.28;;;20.61;68.78
4085;BME280;2057;50.858;6.572;2022-08-21T08:57:09;100453.28;;;20.65;68.97
4085;BME280;2057;50.858;6.572;2022-08-21T08:59:55;100447.28;;;20.66;67.79
4085;BME280;2057;50.858;6.572;2022-08-21T09:02:22;100459.47;;;20.79;67.82
4085;BME280;2057;50.858;6.572;2022-08-21T09:04:53;100458.66;;;20.94;66.34
4085;BME280;2057;50.858;6.572;2022-08-21T09:10:11;100444.06;;;20.95;65.60
4085;BME280;2057;50.858;6.572;2022-08-21T09:25:42;100444.28;;;21.41;63.68
4085;BME280;2057;50.858;6.572;2022-08-21T09:28:11;100437.41;;;21.45;65.15
4085;BME280;2057;50.858;6.572;2022-08-21T09:30:39;100439.97;;;21.48;64.37
4085;BME280;2057;50.858;6.572;2022-08-21T09:33:06;100439.13;;;21.52;64.11
4085;BME280;2057;50.858;6.572;2022-08-21T09:35:31;100442.59;;;21.57;63.53
4085;BME280;2057;50.858;6.572;2022-08-21T09:38:04;100440.03;;;21.63;63.75
4085;BME280;2057;50.858;6.572;2022-08-21T09:43:21;100436.63;;;21.78;64.47
4085;BME280;2057;50.858;6.572;2022-08-21T09:45:48;100430.63;;;21.84;62.04
4085;BME280;2057;50.858;6.572;2022-08-21T09:48:19;100435.78;;;21.75;62.61
4085;BME280;2057;50.858;6.572;2022-08-21T09:50:46;100432.31;;;21.76;62.69
4085;BME280;2057;50.858;6.572;2022-08-21T09:53:19;100428.91;;;22.02;61.89
4085;BME280;2057;50.858;6.572;2022-08-21T09:55:57;100422.88;;;22.14;60.83
4085;BME280;2057;50.858;6.572;2022-08-21T09:58:45;100428.94;;;22.09;61.24
4085;BME280;2057;50.858;6.572;2022-08-21T10:01:24;100421.19;;;22.05;62.15
4085;BME280;2057;50.858;6.572;2022-08-21T10:04:24;100418.56;;;22.08;61.50
4085;BME280;2057;50.858;6.572;2022-08-21T10:06:49;100413.41;;;22.36;61.75
4085;BME280;2057;50.858;6.572;2022-08-21T10:09:18;100410.81;;;22.34;61.20
4085;BME280;2057;50.858;6.572;2022-08-21T10:11:52;100419.44;;;22.50;60.90
4085;BME280;2057;50.858;6.572;2022-08-21T10:17:21;100409.97;;;22.55;59.70
4085;BME280;2057;50.858;6.572;2022-08-21T10:20:04;100407.31;;;22.80;59.65
4085;BME280;2057;50.858;6.572;2022-08-21T10:26:02;100399.53;;;22.77;59.91
4085;BME280;2057;50.858;6.572;2022-08-21T10:28:27;100408.94;;;23.06;59.77
4085;BME280;2057;50.858;6.572;2022-08-21T10:36:52;100400.38;;;22.92;56.73
4085;BME280;2057;50.858;6.572;2022-08-21T10:39:35;100388.34;;;22.80;58.08
4085;BME280;2057;50.858;6.572;2022-08-21T10:45:44;100387.41;;;22.98;59.60
4085;BME280;2057;50.858;6.572;2022-08-21T10:48:07;100389.06;;;23.13;58.66
4085;BME280;2057;50.858;6.572;2022-08-21T10:50:50;100381.28;;;23.24;58.54
4085;BME280;2057;50.858;6.572;2022-08-21T10:53:28;100379.56;;;23.23;59.82
4085;BME280;2057;50.858;6.572;2022-08-21T10:58:31;100382.06;;;23.40;56.56
4085;BME280;2057;50.858;6.572;2022-08-21T11:01:07;100388.91;;;23.52;54.33
4085;BME280;2057;50.858;6.572;2022-08-21T11:03:44;100379.28;;;23.68;54.75
4085;BME280;2057;50.858;6.572;2022-08-21T11:06:16;100383.63;;;23.62;56.11
4085;BME280;2057;50.858;6.572;2022-08-21T11:08:45;100386.97;;;23.80;53.82
4085;BME280;2057;50.858;6.572;2022-08-21T11:11:31;100374.88;;;23.82;54.35
4085;BME280;2057;50.858;6.572;2022-08-21T11:14:25;100369.47;;;24.08;53.42
4085;BME280;2057;50.858;6.572;2022-08-21T11:17:02;100366.19;;;23.85;55.22
4085;BME280;2057;50.858;6.572;2022-08-21T11:19:47;100368.75;;;23.94;56.34
4085;BME280;2057;50.858;6.572;2022-08-21T11:22:28;100366.06;;;24.05;55.43
4085;BME280;2057;50.858;6.572;2022-08-21T11:25:17;100365.97;;;24.14;53.22
4085;BME280;2057;50.858;6.572;2022-08-21T11:27:54;100358.22;;;24.12;51.78
4085;BME280;2057;50.858;6.572;2022-08-21T11:30:24;100353.84;;;24.16;52.90
4085;BME280;2057;50.858;6.572;2022-08-21T11:33:03;100353.88;;;24.15;53.94
4085;BME280;2057;50.858;6.572;2022-08-21T11:41:41;100355.41;;;25.12;53.51
4085;BME280;2057;50.858;6.572;2022-08-21T11:44:26;100356.47;;;24.94;50.67
4085;BME280;2057;50.858;6.572;2022-08-21T11:52:18;100351.44;;;24.83;52.78
4085;BME280;2057;50.858;6.572;2022-08-21T11:55:17;100370.59;;;24.73;51.52
4085;BME280;2057;50.858;6.572;2022-08-21T11:57:49;100363.69;;;24.73;50.94
4085;BME280;2057;50.858;6.572;2022-08-21T12:00:32;100360.25;;;24.68;49.79
4085;BME280;2057;50.858;6.572;2022-08-21T12:03:16;100353.13;;;24.86;50.66
4085;BME280;2057;50.858;6.572;2022-08-21T12:06:00;100356.69;;;24.75;51.11
4085;BME280;2057;50.858;6.572;2022-08-21T12:11:22;100341.50;;;25.15;51.29
4085;BME280;2057;50.858;6.572;2022-08-21T12:16:34;100339.81;;;25.11;50.61
4085;BME280;2057;50.858;6.572;2022-08-21T12:19:11;100344.78;;;25.28;50.34
4085;BME280;2057;50.858;6.572;2022-08-21T12:24:35;100345.47;;;25.42;49.86
4085;BME280;2057;50.858;6.572;2022-08-21T12:27:40;100339.31;;;25.48;49.78
4085;BME280;2057;50.858;6.572;2022-08-21T12:30:33;100339.47;;;25.35;50.70
4085;BME280;2057;50.858;6.572;2022-08-21T12:33:02;100344.28;;;25.63;50.10
4085;BME280;2057;50.858;6.572;2022-08-21T12:35:33;100346.34;;;25.41;49.20
4085;BME280;2057;50.858;6.572;2022-08-21T12:38:09;100338.03;;;25.16;49.20
4085;BME280;2057;50.858;6.572;2022-08-21T12:43:48;100338.59;;;25.35;49.29
4085;BME280;2057;50.858;6.572;2022-08-21T12:46:19;100339.69;;;25.21;49.89
4085;BME280;2057;50.858;6.572;2022-08-21T12:48:56;100342.34;;;25.15;49.44
4085;BME280;2057;50.858;6.572;2022-08-21T12:51:29;100350.34;;;25.01;48.78
4085;BME280;2057;50.858;6.572;2022-08-21T12:53:58;100351.91;;;25.13;49.31
4085;BME280;2057;50.858;6.572;2022-08-21T12:56:28;100348.50;;;25.08;49.77
4085;BME280;2057;50.858;6.572;2022-08-21T12:58:56;100339.63;;;25.25;48.11
4085;BME280;2057;50.858;6.572;2022-08-21T13:01:29;100340.50;;;25.25;49.66
4085;BME280;2057;50.858;6.572;2022-08-21T13:03:58;100338.16;;;25.06;49.27
4085;BME280;2057;50.858;6.572;2022-08-21T13:06:29;100337.66;;;25.42;49.20
4085;BME280;2057;50.858;6.572;2022-08-21T13:08:59;100337.63;;;25.45;48.59
4085;BME280;2057;50.858;6.572;2022-08-21T13:11:28;100339.41;;;25.38;48.96
4085;BME280;2057;50.858;6.572;2022-08-21T13:13:54;100343.34;;;25.67;47.72
4085;BME280;2057;50.858;6.572;2022-08-21T13:16:23;100339.22;;;25.56;48.55
4085;BME280;2057;50.858;6.572;2022-08-21T13:21:31;100328.78;;;26.10;47.80
4085;BME280;2057;50.858;6.572;2022-08-21T13:24:20;100337.88;;;26.35;48.36
4085;BME280;2057;50.858;6.572;2022-08-21T13:26:48;100334.88;;;26.09;47.43
4085;BME280;2057;50.858;6.572;2022-08-21T13:29:17;100329.00;;;25.96;47.91
4085;BME280;2057;50.858;6.572;2022-08-21T13:31:57;100333.06;;;25.60;47.33
4085;BME280;2057;50.858;6.572;2022-08-21T13:34:26;100331.13;;;25.74;49.11
4085;BME280;2057;50.858;6.572;2022-08-21T13:36:58;100330.25;;;25.74;47.80
4085;BME280;2057;50.858;6.572;2022-08-21T13:39:24;100337.91;;;25.83;47.77
4085;BME280;2057;50.858;6.572;2022-08-21T13:41:52;100333.13;;;26.10;47.12
4085;BME280;2057;50.858;6.572;2022-08-21T13:44:22;100329.94;;;25.92;47.03
4085;BME280;2057;50.858;6.572;2022-08-21T13:46:52;100326.41;;;26.45;45.54
4085;BME280;2057;50.858;6.572;2022-08-21T13:49:22;100324.97;;;26.74;46.04
4085;BME280;2057;50.858;6.572;2022-08-21T13:51:49;100324.94;;;26.75;45.07
4085;BME280;2057;50.858;6.572;2022-08-21T13:54:35;100322.38;;;26.28;46.12
4085;BME280;2057;50.858;6.572;2022-08-21T13:57:01;100327.34;;;26.41;45.56
4085;BME280;2057;50.858;6.572;2022-08-21T13:59:35;100322.25;;;25.84;45.81
4085;BME280;2057;50.858;6.572;2022-08-21T14:02:02;100316.03;;;25.93;46.30
4085;BME280;2057;50.858;6.572;2022-08-21T14:04:37;100327.59;;;25.77;45.90
4085;BME280;2057;50.858;6.572;2022-08-21T14:07:19;100327.72;;;25.71;46.78
4085;BME280;2057;50.858;6.572;2022-08-21T14:09:45;100319.91;;;25.71;46.79
4085;BME280;2057;50.858;6.572;2022-08-21T14:12:18;100326.22;;;25.54;47.01
4085;BME280;2057;50.858;6.572;2022-08-21T14:14:45;100323.63;;;25.54;47.03
4085;BME280;2057;50.858;6.572;2022-08-21T14:17:14;100322.09;;;25.41;47.55
4085;BME280;2057;50.858;6.572;2022-08-21T14:19:50;100317.56;;;24.91;47.93
4085;BME280;2057;50.858;6.572;2022-08-21T14:22:32;100327.13;;;24.89;48.48
4085;BME280;2057;50.858;6.572;2022-08-21T14:25:05;100322.69;;;24.97;47.90